Time;durP1;ratioP1;P1;durP2;ratioP2;P2;SDS_P1;SDS_P2;PMS_P1;PMS_P2;Temp;Humidity;BMP_temperature;BMP_pressure;BME280_temperature;BME280_humidity;BME280_pressure;Samples;Min_cycle;Max_cycle;Signal;HPM_P1;HPM_P2
2021/12/17 00:07:00;;;;;;;12.40;7.65;;;0.70;99.90;;;;;;5054891;28;20027;-76
2021/12/17 00:09:26;;;;;;;13.75;7.68;;;0.70;99.90;;;;;;5062478;28;20102;-75
2021/12/17 00:11:52;;;;;;;12.95;7.28;;;0.70;99.90;;;;;;5063926;28;20039;-75
2021/12/17 00:14:26;;;;;;;11.77;7.15;;;0.60;99.90;;;;;;5062082;28;20483;-76
2021/12/17 00:16:58;;;;;;;12.00;7.13;;;0.60;99.90;;;;;;5053264;28;20401;-75
2021/12/17 00:49:04;;;;;;;13.77;8.00;;;0.80;99.90;;;;;;5064045;28;20116;-75
2021/12/17 00:54:13;;;;;;;14.93;7.85;;;0.80;99.90;;;;;;5058828;28;20480;-73
2021/12/17 00:56:39;;;;;;;15.45;8.93;;;0.80;99.90;;;;;;5053805;28;20032;-74
2021/12/17 00:59:06;;;;;;;14.63;7.95;;;0.70;99.90;;;;;;5054130;28;20025;-73
2021/12/17 01:01:32;;;;;;;12.70;7.25;;;0.70;99.90;;;;;;5052526;28;20025;-73
2021/12/17 01:03:57;;;;;;;13.10;7.40;;;0.70;99.90;;;;;;5056809;28;20039;-72
2021/12/17 01:06:23;;;;;;;13.38;7.70;;;0.70;99.90;;;;;;5053724;28;20058;-72
2021/12/17 01:08:50;;;;;;;11.43;7.05;;;0.70;99.90;;;;;;5062444;28;20028;-73
2021/12/17 01:11:16;;;;;;;14.43;7.95;;;0.80;99.90;;;;;;5073637;28;20025;-73
2021/12/17 01:13:43;;;;;;;11.63;7.30;;;0.80;99.90;;;;;;5062085;28;20342;-73
2021/12/17 01:16:10;;;;;;;13.25;7.25;;;0.70;99.90;;;;;;5059798;28;20548;-73
2021/12/17 01:19:07;;;;;;;12.70;7.78;;;0.70;99.90;;;;;;5063098;28;20052;-72
2021/12/17 01:24:11;;;;;;;12.57;7.57;;;0.70;99.90;;;;;;5059212;28;20033;-73
2021/12/17 01:42:57;;;;;;;13.38;7.10;;;0.90;99.90;;;;;;5035219;28;20037;-73
2021/12/17 01:45:28;;;;;;;13.18;7.75;;;0.90;99.90;;;;;;5052531;28;20036;-74
2021/12/17 01:47:54;;;;;;;14.57;7.18;;;0.90;99.90;;;;;;5053518;28;20089;-74
2021/12/17 01:56:01;;;;;;;11.02;6.25;;;0.90;99.90;;;;;;5073240;28;20083;-73
2021/12/17 02:01:12;;;;;;;14.50;7.97;;;0.80;99.90;;;;;;5073723;28;20040;-74
2021/12/17 02:03:38;;;;;;;15.80;8.35;;;0.70;99.90;;;;;;5067436;28;20400;-73
2021/12/17 02:06:05;;;;;;;16.75;9.07;;;0.70;99.90;;;;;;5060491;28;20040;-73
2021/12/17 02:08:32;;;;;;;12.80;7.50;;;0.70;99.90;;;;;;5066040;28;20024;-74
2021/12/17 02:32:33;;;;;;;17.40;9.57;;;0.60;99.90;;;;;;5074315;28;20545;-74
2021/12/17 02:35:22;;;;;;;16.40;8.95;;;0.60;99.90;;;;;;5064003;28;20075;-73
2021/12/17 02:37:49;;;;;;;15.95;8.68;;;0.60;99.90;;;;;;5055903;28;20017;-74
2021/12/17 02:45:33;;;;;;;16.08;8.10;;;0.60;99.90;;;;;;5067943;28;20025;-73
2021/12/17 02:48:12;;;;;;;;;;;0.70;99.90;;;;;;5070403;28;20029;-72
2021/12/17 02:50:44;;;;;;;12.75;7.20;;;0.70;99.90;;;;;;5056449;28;19909;-73
2021/12/17 02:53:12;;;;;;;13.68;7.72;;;0.80;99.90;;;;;;5056026;28;20021;-73
2021/12/17 02:55:45;;;;;;;14.82;8.18;;;0.80;99.90;;;;;;5057448;28;20532;-74
2021/12/17 02:58:11;;;;;;;12.07;7.03;;;0.80;99.90;;;;;;5066604;28;20039;-72
2021/12/17 03:00:39;;;;;;;13.95;7.45;;;0.80;99.90;;;;;;5056396;28;20021;-73
2021/12/17 03:03:07;;;;;;;13.68;7.53;;;0.80;99.90;;;;;;5057098;28;20035;-73
2021/12/17 03:05:34;;;;;;;14.60;8.30;;;0.80;99.90;;;;;;5070594;28;20017;-74
2021/12/17 03:08:00;;;;;;;13.02;7.90;;;0.80;99.90;;;;;;5065025;28;20032;-72
2021/12/17 03:10:27;;;;;;;13.70;7.65;;;0.80;99.90;;;;;;5056038;28;20024;-73
2021/12/17 03:13:00;;;;;;;12.70;7.57;;;0.80;99.90;;;;;;5059368;28;20056;-73
2021/12/17 03:23:39;;;;;;;15.00;8.77;;;0.90;99.90;;;;;;5066090;28;20388;-74
2021/12/17 03:26:09;;;;;;;15.63;9.18;;;0.90;99.90;;;;;;5068617;28;20108;-74
2021/12/17 03:28:36;;;;;;;14.90;8.43;;;0.90;99.90;;;;;;5064399;28;20508;-73
2021/12/17 03:31:03;;;;;;;16.27;8.23;;;0.90;99.90;;;;;;5055401;28;20047;-73
2021/12/17 03:33:29;;;;;;;14.27;7.95;;;0.90;99.90;;;;;;5055295;28;20021;-73
2021/12/17 03:35:57;;;;;;;12.68;7.50;;;0.90;99.90;;;;;;5055233;28;20120;-73
2021/12/17 03:38:23;;;;;;;12.07;7.15;;;0.90;99.90;;;;;;5058035;28;20021;-73
2021/12/17 03:40:53;;;;;;;12.10;6.97;;;0.90;99.90;;;;;;5054752;28;20408;-73
2021/12/17 03:43:23;;;;;;;12.18;7.03;;;0.80;99.90;;;;;;5073151;28;20540;-74
2021/12/17 03:45:49;;;;;;;9.73;6.57;;;0.90;99.90;;;;;;5075190;28;20031;-73
2021/12/17 03:48:15;;;;;;;12.10;7.00;;;0.90;99.90;;;;;;5073739;28;20036;-74
2021/12/17 03:50:41;;;;;;;12.32;7.20;;;0.90;99.90;;;;;;5070793;28;20033;-73
2021/12/17 03:53:08;;;;;;;12.25;7.25;;;0.90;99.90;;;;;;5056232;28;20477;-73
2021/12/17 03:55:34;;;;;;;12.15;7.57;;;0.90;99.90;;;;;;5055381;28;20025;-73
2021/12/17 03:58:00;;;;;;;14.80;7.57;;;0.90;99.90;;;;;;5057278;28;20024;-74
2021/12/17 04:00:27;;;;;;;12.27;6.97;;;0.90;99.90;;;;;;5064564;28;20365;-74
2021/12/17 04:02:53;;;;;;;12.18;6.40;;;0.90;99.90;;;;;;5054702;28;20024;-74
2021/12/17 04:05:19;;;;;;;11.70;6.88;;;0.90;99.90;;;;;;5060966;28;20027;-73
2021/12/17 04:07:45;;;;;;;10.57;6.38;;;0.90;99.90;;;;;;5061606;28;20040;-73
2021/12/17 04:10:11;;;;;;;12.80;7.43;;;0.90;99.90;;;;;;5072577;28;20032;-73
2021/12/17 04:13:00;;;;;;;11.30;7.00;;;0.90;99.90;;;;;;5057891;28;20025;-74
2021/12/17 04:15:37;;;;;;;13.90;7.35;;;0.90;99.90;;;;;;5054287;28;20013;-73
2021/12/17 04:18:09;;;;;;;13.10;7.00;;;1.00;99.90;;;;;;5054504;28;20029;-73
2021/12/17 04:20:35;;;;;;;12.77;7.10;;;0.90;99.90;;;;;;5086510;28;20021;-73
2021/12/17 04:23:01;;;;;;;12.20;6.38;;;0.90;99.90;;;;;;5055392;28;20039;-73
2021/12/17 04:25:28;;;;;;;12.57;7.18;;;0.90;99.90;;;;;;5054283;28;20029;-74
2021/12/17 04:27:55;;;;;;;12.57;7.03;;;0.90;99.90;;;;;;5057966;28;20031;-74
2021/12/17 04:30:22;;;;;;;13.63;7.15;;;0.80;99.90;;;;;;5054779;28;20029;-74
2021/12/17 04:32:47;;;;;;;12.50;6.85;;;0.90;99.90;;;;;;5069135;28;20017;-74
2021/12/17 04:35:13;;;;;;;12.73;7.55;;;0.90;99.90;;;;;;5074513;28;20031;-74
2021/12/17 04:37:39;;;;;;;14.50;8.15;;;0.90;99.90;;;;;;5063561;28;20020;-74
2021/12/17 04:40:05;;;;;;;13.60;8.15;;;0.90;99.90;;;;;;5054212;28;20064;-74
2021/12/17 04:42:43;;;;;;;13.88;8.02;;;0.90;99.90;;;;;;5072187;28;20043;-75
2021/12/17 04:45:08;;;;;;;14.65;8.70;;;0.90;99.90;;;;;;5072100;28;20056;-74
2021/12/17 04:58:31;;;;;;;13.40;8.00;;;0.90;99.90;;;;;;5054446;28;20035;-74
2021/12/17 05:00:59;;;;;;;13.73;7.75;;;0.90;99.90;;;;;;5054359;28;20431;-75
2021/12/17 05:03:24;;;;;;;13.15;7.38;;;0.90;99.90;;;;;;5058303;28;20448;-75
2021/12/17 05:05:50;;;;;;;14.93;7.45;;;0.80;99.90;;;;;;5073854;28;20029;-74
2021/12/17 05:08:19;;;;;;;13.43;7.72;;;0.80;99.90;;;;;;5057498;28;20036;-73
2021/12/17 05:18:56;;;;;;;25.73;12.68;;;0.80;99.90;;;;;;5057579;28;20031;-74
2021/12/17 05:21:23;;;;;;;25.60;12.25;;;0.70;99.90;;;;;;5053618;28;20158;-74
2021/12/17 05:23:51;;;;;;;27.40;13.45;;;0.70;99.90;;;;;;5059842;28;20400;-74
2021/12/17 05:26:19;;;;;;;24.70;12.10;;;0.70;99.90;;;;;;5067051;28;20024;-74
2021/12/17 05:28:46;;;;;;;24.92;11.48;;;0.70;99.90;;;;;;5071141;28;20029;-74
2021/12/17 05:31:14;;;;;;;20.10;10.30;;;0.80;99.90;;;;;;5071842;28;20048;-74
2021/12/17 05:33:40;;;;;;;15.48;9.13;;;0.80;99.90;;;;;;5054737;28;20498;-75
2021/12/17 05:36:06;;;;;;;16.48;8.75;;;0.80;99.90;;;;;;5061589;28;20032;-74
2021/12/17 05:38:32;;;;;;;15.98;8.82;;;0.80;99.90;;;;;;5076547;28;20086;-74
2021/12/17 05:40:59;;;;;;;15.20;8.18;;;0.80;99.90;;;;;;5055683;28;20037;-74
2021/12/17 05:43:24;;;;;;;11.57;7.43;;;0.80;99.90;;;;;;5057072;28;20052;-74
2021/12/17 05:48:24;;;;;;;15.82;8.38;;;0.70;99.90;;;;;;5063339;28;20036;-74
2021/12/17 05:51:01;;;;;;;17.00;10.40;;;0.80;99.90;;;;;;5054566;28;20484;-75
2021/12/17 05:53:28;;;;;;;18.40;10.20;;;0.70;99.90;;;;;;5056228;28;20027;-75
2021/12/17 05:55:55;;;;;;;16.92;9.88;;;0.70;99.90;;;;;;5061416;28;20025;-74
2021/12/17 05:58:21;;;;;;;13.70;9.00;;;0.70;99.90;;;;;;5052846;28;20029;-75
2021/12/17 06:00:47;;;;;;;16.00;9.25;;;0.80;99.90;;;;;;5061087;28;20021;-74
2021/12/17 06:03:13;;;;;;;16.20;9.25;;;0.80;99.90;;;;;;5069587;28;20471;-74
2021/12/17 06:05:39;;;;;;;15.18;8.90;;;0.80;99.90;;;;;;5054820;28;20025;-74
2021/12/17 06:08:05;;;;;;;17.42;9.38;;;0.80;99.90;;;;;;5071976;28;20027;-74
2021/12/17 06:10:32;;;;;;;16.85;9.45;;;0.80;99.90;;;;;;5057316;28;20055;-74
2021/12/17 06:12:58;;;;;;;16.90;9.50;;;0.80;99.90;;;;;;5053633;28;20484;-74
2021/12/17 06:15:25;;;;;;;16.50;9.32;;;0.90;99.90;;;;;;5066531;28;20024;-73
2021/12/17 06:17:52;;;;;;;17.27;9.65;;;0.80;99.90;;;;;;5072167;28;20024;-74
2021/12/17 06:20:19;;;;;;;20.30;10.93;;;0.90;99.90;;;;;;5058891;28;20029;-74
2021/12/17 06:22:49;;;;;;;23.13;11.82;;;0.90;99.90;;;;;;5067049;28;20054;-74
2021/12/17 06:25:15;;;;;;;20.75;11.50;;;0.90;99.90;;;;;;5060194;28;21015;-74
2021/12/17 06:27:41;;;;;;;23.92;12.23;;;0.90;99.90;;;;;;5066318;28;20488;-73
2021/12/17 06:30:10;;;;;;;20.77;11.20;;;0.90;99.90;;;;;;5071027;28;20380;-74
2021/12/17 06:32:36;;;;;;;18.65;10.07;;;0.80;99.90;;;;;;5066543;28;20111;-74
2021/12/17 06:35:02;;;;;;;17.92;9.65;;;0.90;99.90;;;;;;5062272;28;20056;-75
2021/12/17 06:37:28;;;;;;;18.95;10.68;;;0.90;99.90;;;;;;5057423;28;20108;-74
2021/12/17 06:39:54;;;;;;;19.40;9.98;;;0.90;99.90;;;;;;5055160;28;20381;-74
2021/12/17 06:42:19;;;;;;;14.85;7.60;;;0.90;99.90;;;;;;5054335;28;20143;-74
2021/12/17 06:44:47;;;;;;;17.55;9.68;;;0.90;99.90;;;;;;5068564;28;20028;-73
2021/12/17 06:54:35;;;;;;;18.25;11.40;;;0.90;99.90;;;;;;5069998;28;20163;-73
2021/12/17 07:11:15;;;;;;;14.00;7.25;;;0.80;99.90;;;;;;5064750;28;20028;-74
2021/12/17 07:21:42;;;;;;;15.00;7.68;;;0.70;99.90;;;;;;5060218;28;20064;-74
2021/12/17 07:31:35;;;;;;;18.13;9.00;;;0.80;99.90;;;;;;5056248;28;20083;-74
2021/12/17 07:32:50;;;;;;;16.20;8.02;;;0.70;99.90;;;;;;5075981;28;20021;-74
2021/12/17 07:40:33;;;;;;;12.63;7.00;;;0.70;99.90;;;;;;5072391;28;20086;-74
2021/12/17 07:43:02;;;;;;;12.82;6.93;;;0.70;99.90;;;;;;5059404;28;20017;-74
2021/12/17 07:45:29;;;;;;;14.00;7.00;;;0.80;99.90;;;;;;5062920;28;20024;-75
2021/12/17 07:47:55;;;;;;;14.10;6.82;;;0.80;99.90;;;;;;5060115;28;20032;-74
2021/12/17 07:50:21;;;;;;;14.63;7.95;;;0.80;99.90;;;;;;5055103;28;20017;-74
2021/12/17 07:52:47;;;;;;;17.42;7.30;;;0.80;99.90;;;;;;5065853;28;20029;-75
2021/12/17 07:55:12;;;;;;;11.48;6.65;;;0.90;99.90;;;;;;5068043;28;20013;-73
2021/12/17 07:57:38;;;;;;;12.75;6.10;;;0.90;99.90;;;;;;5055025;28;20025;-74
2021/12/17 08:00:06;;;;;;;12.27;6.70;;;0.90;99.90;;;;;;5055279;28;20028;-74
2021/12/17 08:02:32;;;;;;;10.55;6.03;;;1.00;99.90;;;;;;5062635;28;20407;-74
2021/12/17 08:04:57;;;;;;;10.75;6.00;;;1.00;99.90;;;;;;5054833;28;20029;-74
2021/12/17 08:07:23;;;;;;;11.75;6.47;;;1.00;99.90;;;;;;5066226;28;20029;-74
2021/12/17 08:09:49;;;;;;;13.45;6.80;;;1.00;99.90;;;;;;5065907;28;20029;-75
2021/12/17 08:12:17;;;;;;;13.02;7.15;;;1.00;99.90;;;;;;5065445;28;20033;-74
2021/12/17 08:14:43;;;;;;;12.20;6.15;;;1.00;99.90;;;;;;5059913;28;20087;-73
2021/12/17 08:25:14;;;;;;;11.90;6.05;;;1.00;99.90;;;;;;5060828;28;20443;-73
2021/12/17 08:28:04;;;;;;;12.35;6.90;;;1.00;99.90;;;;;;5067234;28;20081;-74
2021/12/17 08:30:38;;;;;;;13.75;7.20;;;1.00;99.90;;;;;;5055000;28;20116;-74
2021/12/17 08:33:05;;;;;;;16.45;8.07;;;1.00;99.90;;;;;;5065708;28;20029;-74
2021/12/17 08:35:35;;;;;;;14.25;6.97;;;1.00;99.90;;;;;;5067875;28;20048;-74
2021/12/17 08:38:05;;;;;;;13.35;6.63;;;1.00;99.90;;;;;;5058587;28;20475;-74
2021/12/17 08:40:31;;;;;;;13.30;7.35;;;1.00;99.90;;;;;;5058230;28;20036;-74
2021/12/17 08:42:57;;;;;;;13.45;6.85;;;1.00;99.90;;;;;;5056714;28;20032;-74
2021/12/17 08:45:23;;;;;;;16.05;7.75;;;1.00;99.90;;;;;;5056556;28;20481;-73
2021/12/17 08:47:50;;;;;;;15.68;8.00;;;1.00;99.90;;;;;;5056492;28;20029;-75
2021/12/17 08:50:16;;;;;;;18.90;8.55;;;1.00;99.90;;;;;;5061858;28;20024;-75
2021/12/17 08:52:42;;;;;;;14.65;8.32;;;1.00;99.90;;;;;;5066661;28;20027;-73
2021/12/17 08:55:10;;;;;;;16.02;7.65;;;0.90;99.90;;;;;;5074002;28;20017;-73
2021/12/17 08:57:36;;;;;;;15.68;8.35;;;0.90;99.90;;;;;;5082338;28;20410;-75
2021/12/17 09:00:07;;;;;;;15.30;8.13;;;1.00;99.90;;;;;;5065277;28;20027;-75
2021/12/17 09:02:35;;;;;;;13.68;7.03;;;1.00;99.90;;;;;;5071584;28;20082;-73
2021/12/17 09:05:03;;;;;;;16.38;7.05;;;1.00;99.90;;;;;;5078808;28;20021;-74
2021/12/17 09:07:29;;;;;;;18.33;10.02;;;0.90;99.90;;;;;;5081061;28;20048;-73
2021/12/17 09:09:55;;;;;;;16.35;8.32;;;1.00;99.90;;;;;;5053959;28;20465;-73
2021/12/17 09:12:21;;;;;;;15.65;8.10;;;1.00;99.90;;;;;;5066030;28;20052;-74
2021/12/17 09:14:47;;;;;;;15.40;8.27;;;1.00;99.90;;;;;;5087218;28;20107;-73
2021/12/17 09:17:12;;;;;;;20.05;10.35;;;1.00;99.90;;;;;;5071796;28;20040;-73
2021/12/17 09:19:38;;;;;;;21.77;11.75;;;1.10;99.90;;;;;;5060333;28;20061;-74
2021/12/17 09:22:04;;;;;;;19.55;10.15;;;1.10;99.90;;;;;;5059748;28;20025;-74
2021/12/17 09:24:31;;;;;;;18.33;9.73;;;1.10;99.90;;;;;;5053863;28;20025;-74
2021/12/17 09:26:57;;;;;;;15.25;7.82;;;1.10;99.90;;;;;;5064303;28;20024;-74
2021/12/17 09:29:22;;;;;;;13.18;7.15;;;1.10;99.90;;;;;;5066173;28;20039;-74
2021/12/17 09:31:49;;;;;;;13.10;7.35;;;1.20;99.90;;;;;;5066991;28;20039;-74
2021/12/17 09:34:14;;;;;;;13.88;6.97;;;1.20;99.90;;;;;;5067514;28;20048;-74
2021/12/17 09:36:40;;;;;;;17.40;8.23;;;1.20;99.90;;;;;;5058407;28;20460;-75
2021/12/17 09:39:06;;;;;;;15.30;8.00;;;1.30;99.90;;;;;;5077734;28;20020;-74
2021/12/17 09:41:32;;;;;;;14.13;7.28;;;1.30;99.90;;;;;;5075404;28;20052;-75
2021/12/17 09:43:58;;;;;;;15.32;7.38;;;1.30;99.90;;;;;;5062205;28;20081;-74
2021/12/17 09:46:24;;;;;;;15.52;6.93;;;1.30;99.90;;;;;;5065701;28;20024;-74
2021/12/17 09:48:49;;;;;;;12.40;6.07;;;1.40;99.90;;;;;;5066887;28;20021;-73
2021/12/17 09:51:18;;;;;;;14.00;6.75;;;1.30;99.90;;;;;;5056903;28;20036;-74
2021/12/17 09:53:45;;;;;;;13.63;6.60;;;1.40;99.90;;;;;;5065577;28;20025;-74
2021/12/17 09:56:11;;;;;;;16.73;9.25;;;1.40;99.90;;;;;;5061542;28;20017;-72
2021/12/17 09:58:37;;;;;;;12.90;6.80;;;1.40;99.90;;;;;;5061286;28;20024;-74
2021/12/17 10:01:04;;;;;;;12.73;5.68;;;1.40;99.90;;;;;;5061620;28;20039;-74
2021/12/17 10:03:30;;;;;;;11.90;6.03;;;1.40;99.90;;;;;;5069973;28;20039;-73
2021/12/17 10:05:56;;;;;;;10.60;6.05;;;1.40;99.90;;;;;;5061749;28;20111;-73
2021/12/17 10:08:24;;;;;;;11.52;5.60;;;1.30;99.90;;;;;;5072267;28;20020;-73
2021/12/17 10:10:59;;;;;;;11.63;5.93;;;1.20;99.90;;;;;;5054635;28;20390;-73
2021/12/17 10:13:28;;;;;;;12.98;5.88;;;1.10;99.90;;;;;;5058828;28;20455;-74
2021/12/17 10:16:12;;;;;;;12.93;6.10;;;1.20;99.90;;;;;;5064200;28;20028;-74
2021/12/17 10:18:46;;;;;;;13.23;6.20;;;1.20;99.90;;;;;;5056087;28;20099;-74
2021/12/17 10:21:24;;;;;;;13.63;6.88;;;1.20;99.90;;;;;;5061179;28;20025;-73
2021/12/17 10:23:54;;;;;;;13.48;6.80;;;1.20;99.90;;;;;;5055529;28;20037;-74
2021/12/17 10:26:21;;;;;;;16.15;8.68;;;1.20;99.90;;;;;;5059908;28;20465;-74
2021/12/17 10:29:04;;;;;;;15.15;8.70;;;1.20;99.90;;;;;;5059024;28;20524;-74
2021/12/17 10:31:31;;;;;;;13.75;7.10;;;1.20;99.90;;;;;;5060634;28;20017;-73
2021/12/17 10:34:03;;;;;;;16.70;7.95;;;1.20;99.90;;;;;;5059643;28;20017;-74
2021/12/17 10:36:34;;;;;;;14.18;6.85;;;1.20;99.90;;;;;;5061798;28;20029;-73
2021/12/17 10:39:11;;;;;;;11.43;5.88;;;1.20;99.90;;;;;;5063991;28;20096;-74
2021/12/17 10:41:48;;;;;;;12.05;6.40;;;1.20;99.90;;;;;;5069108;28;20075;-74
2021/12/17 10:44:14;;;;;;;11.90;6.50;;;1.20;99.90;;;;;;5069484;28;20067;-74
2021/12/17 10:46:57;;;;;;;23.30;10.85;;;1.30;99.90;;;;;;5064212;28;20067;-74
2021/12/17 10:49:26;;;;;;;21.25;10.65;;;1.40;99.90;;;;;;5070216;28;20033;-73
2021/12/17 10:52:04;;;;;;;15.88;8.30;;;1.50;99.90;;;;;;5066274;28;20029;-73
2021/12/17 10:54:29;;;;;;;13.13;7.72;;;1.60;99.90;;;;;;5065012;28;20029;-72
2021/12/17 10:56:55;;;;;;;13.23;6.97;;;1.70;99.90;;;;;;5059627;28;20028;-74
2021/12/17 10:59:28;;;;;;;11.68;6.55;;;1.70;99.90;;;;;;5062323;28;20504;-74
2021/12/17 11:01:59;;;;;;;14.13;7.97;;;1.80;99.90;;;;;;5061576;28;20079;-74
2021/12/17 11:04:27;;;;;;;19.00;10.30;;;1.80;99.90;;;;;;5063062;28;20442;-72
2021/12/17 11:07:06;;;;;;;16.50;8.63;;;1.80;99.90;;;;;;5059238;28;20033;-73
2021/12/17 11:09:49;;;;;;;14.93;7.90;;;1.80;99.90;;;;;;5062837;28;20026;-73
2021/12/17 11:12:17;;;;;;;14.60;7.32;;;1.80;99.90;;;;;;5062814;28;20051;-73
2021/12/17 11:14:45;;;;;;;11.35;6.57;;;1.90;99.90;;;;;;5057266;28;20028;-73
2021/12/17 11:17:12;;;;;;;11.95;6.65;;;1.90;99.90;;;;;;5062607;28;20099;-73
2021/12/17 11:19:39;;;;;;;12.20;7.32;;;2.00;99.90;;;;;;5067616;28;20071;-73
2021/12/17 11:22:05;;;;;;;25.95;13.60;;;2.00;99.90;;;;;;5064136;28;20040;-73
2021/12/17 11:24:34;;;;;;;19.75;11.82;;;2.00;99.90;;;;;;5060500;28;20025;-75
2021/12/17 11:27:04;;;;;;;21.80;10.95;;;2.00;99.90;;;;;;5062508;28;20033;-74
2021/12/17 11:29:31;;;;;;;13.50;7.82;;;2.00;99.90;;;;;;5062488;28;20031;-73
2021/12/17 11:31:59;;;;;;;12.85;6.82;;;2.10;99.90;;;;;;5061258;28;20400;-74
2021/12/17 11:34:26;;;;;;;10.18;5.80;;;2.00;99.90;;;;;;5068340;28;20029;-74
2021/12/17 11:36:54;;;;;;;13.90;6.63;;;2.00;99.90;;;;;;5064358;28;20017;-75
2021/12/17 11:39:24;;;;;;;18.75;9.63;;;2.00;99.90;;;;;;5058610;28;20031;-74
2021/12/17 11:42:18;;;;;;;15.05;8.40;;;2.00;99.90;;;;;;5063410;28;20108;-74
2021/12/17 11:45:34;;;;;;;14.20;6.88;;;2.00;99.90;;;;;;5054922;28;20035;-74
2021/12/17 11:47:34;;;;;;;12.48;6.50;;;1.90;99.90;;;;;;5048461;28;20049;-74
2021/12/17 11:50:05;;;;;;;13.35;6.10;;;2.00;99.90;;;;;;5060403;28;20697;-75
2021/12/17 11:52:47;;;;;;;14.90;8.20;;;1.90;99.90;;;;;;5060555;28;20100;-75
2021/12/17 11:55:28;;;;;;;12.93;7.20;;;1.90;99.90;;;;;;5060366;28;20025;-76
2021/12/17 11:57:59;;;;;;;12.70;7.07;;;2.00;99.90;;;;;;5064613;28;20021;-74
2021/12/17 12:00:30;;;;;;;14.52;6.97;;;1.90;99.90;;;;;;5057019;28;20489;-74
2021/12/17 12:03:15;;;;;;;10.35;5.40;;;1.80;99.90;;;;;;5056814;28;20091;-75
2021/12/17 12:05:43;;;;;;;11.68;5.93;;;1.70;99.90;;;;;;5056299;28;20036;-75
2021/12/17 12:08:50;;;;;;;12.13;5.40;;;1.60;99.90;;;;;;5061621;28;20020;-74
2021/12/17 12:11:27;;;;;;;14.70;6.50;;;1.60;99.90;;;;;;5024390;28;20033;-74
2021/12/17 12:13:54;;;;;;;11.18;5.85;;;1.60;99.90;;;;;;5059509;28;20043;-74
2021/12/17 12:16:21;;;;;;;14.05;7.38;;;1.50;99.90;;;;;;5066580;28;20493;-73
2021/12/17 12:18:57;;;;;;;11.65;6.30;;;1.60;99.90;;;;;;5064933;28;20044;-74
2021/12/17 12:21:33;;;;;;;12.52;6.57;;;1.50;99.90;;;;;;5058250;28;20055;-75
2021/12/17 12:24:16;;;;;;;14.35;7.00;;;1.50;99.90;;;;;;5067816;28;20110;-75
2021/12/17 12:26:43;;;;;;;13.02;5.95;;;1.50;99.90;;;;;;5051987;28;20017;-74
2021/12/17 12:29:23;;;;;;;11.20;5.97;;;1.50;99.90;;;;;;5051293;28;20063;-74
2021/12/17 12:31:50;;;;;;;10.75;6.07;;;1.50;99.90;;;;;;5053035;28;20048;-74
2021/12/17 12:34:37;;;;;;;18.02;8.75;;;1.50;99.90;;;;;;5053154;28;20107;-74
2021/12/17 12:37:17;;;;;;;16.48;8.25;;;1.40;99.90;;;;;;5054834;28;20025;-74
2021/12/17 12:39:53;;;;;;;16.48;8.65;;;1.40;99.90;;;;;;5058903;28;20028;-73
2021/12/17 12:42:31;;;;;;;15.20;8.07;;;1.40;99.90;;;;;;5054126;28;20032;-73
2021/12/17 12:44:56;;;;;;;15.43;7.85;;;1.40;99.90;;;;;;5057421;28;20078;-73
2021/12/17 12:47:34;;;;;;;14.23;8.07;;;1.40;99.90;;;;;;5053947;28;20489;-73
2021/12/17 12:50:03;;;;;;;18.00;9.15;;;1.40;99.90;;;;;;5055670;28;20068;-73
2021/12/17 12:52:31;;;;;;;18.30;9.18;;;1.50;99.90;;;;;;5072097;23;20017;-69
2021/12/17 12:55:40;;;;;;;18.65;8.68;;;1.50;99.90;;;;;;5042658;28;20397;-69
2021/12/17 12:58:12;;;;;;;16.58;7.72;;;1.50;99.90;;;;;;5034073;28;20041;-69
2021/12/17 13:00:58;;;;;;;18.25;7.55;;;1.50;99.90;;;;;;5038210;28;20025;-69
2021/12/17 13:03:31;;;;;;;13.98;7.45;;;1.50;99.90;;;;;;5034251;28;20053;-69
2021/12/17 13:06:00;;;;;;;12.32;6.90;;;1.50;99.90;;;;;;5037357;28;20484;-69
2021/12/17 13:08:30;;;;;;;19.40;9.52;;;1.50;99.90;;;;;;5037444;28;20032;-69
2021/12/17 13:10:59;;;;;;;20.40;10.63;;;1.50;99.90;;;;;;5037473;28;20044;-69
2021/12/17 13:13:38;;;;;;;15.95;8.52;;;1.40;99.90;;;;;;5035964;28;20288;-69
2021/12/17 13:21:58;;;;;;;15.85;8.27;;;1.30;99.90;;;;;;5031330;28;20040;-69
2021/12/17 13:24:27;;;;;;;14.10;7.05;;;1.30;99.90;;;;;;5034101;28;20036;-69
2021/12/17 13:26:57;;;;;;;13.85;7.95;;;1.30;99.90;;;;;;5035568;28;20063;-69
2021/12/17 13:29:35;;;;;;;16.42;8.15;;;1.30;99.90;;;;;;5033731;28;20030;-69
2021/12/17 13:32:07;;;;;;;14.27;7.32;;;1.30;99.90;;;;;;5032957;28;20052;-69
2021/12/17 13:34:33;;;;;;;14.90;7.63;;;1.30;99.90;;;;;;5033649;28;20116;-69
2021/12/17 13:37:15;;;;;;;14.10;7.43;;;1.30;99.90;;;;;;5029114;28;20126;-69
2021/12/17 13:39:51;;;;;;;13.05;7.40;;;1.30;99.90;;;;;;5032563;28;20037;-69
2021/12/17 13:42:27;;;;;;;16.13;8.20;;;1.30;99.90;;;;;;5030086;28;20025;-69
2021/12/17 13:45:01;;;;;;;16.33;7.85;;;1.30;99.90;;;;;;5034149;28;20499;-69
2021/12/17 13:47:42;;;;;;;13.13;7.38;;;1.30;99.90;;;;;;5021535;28;20083;-69
2021/12/17 13:50:22;;;;;;;13.27;7.72;;;1.20;99.90;;;;;;5030940;28;20025;-69
2021/12/17 13:53:18;;;;;;;12.70;6.15;;;1.20;99.90;;;;;;5033673;28;20061;-69
2021/12/17 13:55:50;;;;;;;13.57;7.25;;;1.20;99.90;;;;;;5031218;28;20037;-69
2021/12/17 13:58:24;;;;;;;17.75;8.80;;;1.10;99.90;;;;;;5031254;28;20017;-69
2021/12/17 14:00:53;;;;;;;13.45;7.70;;;1.10;99.90;;;;;;5032708;28;20060;-69
2021/12/17 14:03:23;;;;;;;17.25;9.15;;;1.10;99.90;;;;;;5029080;28;20120;-69
2021/12/17 14:05:56;;;;;;;16.70;8.27;;;1.10;99.90;;;;;;5034778;28;20075;-69
2021/12/17 14:08:23;;;;;;;15.30;8.00;;;1.00;99.90;;;;;;5035126;28;20059;-69
2021/12/17 14:10:51;;;;;;;14.32;7.80;;;0.90;99.90;;;;;;5036642;28;20022;-69
2021/12/17 14:13:26;;;;;;;21.35;11.18;;;0.90;99.90;;;;;;5037347;28;20037;-69
2021/12/17 14:15:54;;;;;;;17.60;9.55;;;0.90;99.90;;;;;;5035472;28;20029;-69
2021/12/17 14:18:26;;;;;;;18.55;9.48;;;0.90;99.90;;;;;;5028792;28;20117;-69
2021/12/17 14:20:54;;;;;;;16.90;9.52;;;0.90;99.90;;;;;;5035986;28;20392;-69
2021/12/17 14:23:23;;;;;;;15.00;7.57;;;0.90;99.90;;;;;;5035883;28;20026;-69
2021/12/17 14:25:53;;;;;;;13.07;7.20;;;0.90;99.90;;;;;;5034571;28;20060;-69
2021/12/17 14:28:25;;;;;;;12.98;7.10;;;1.00;99.90;;;;;;5024176;28;20485;-69
2021/12/17 14:31:14;;;;;;;12.85;7.15;;;1.00;99.90;;;;;;5033657;28;20034;-68
2021/12/17 14:33:46;;;;;;;12.75;6.63;;;1.00;99.90;;;;;;5026760;28;20021;-69
2021/12/17 14:36:14;;;;;;;11.98;6.55;;;1.10;99.90;;;;;;5037851;28;20017;-69
2021/12/17 14:38:45;;;;;;;12.95;7.10;;;1.00;99.90;;;;;;5034399;28;20021;-69
2021/12/17 14:41:17;;;;;;;15.40;7.38;;;0.90;99.90;;;;;;5035660;28;20025;-69
2021/12/17 14:43:56;;;;;;;13.05;7.00;;;0.90;99.90;;;;;;5022498;28;20097;-69
2021/12/17 14:46:32;;;;;;;13.52;7.38;;;0.80;99.90;;;;;;5034219;28;20503;-69
2021/12/17 15:00:28;;;;;;;18.67;9.90;;;0.80;99.90;;;;;;5036387;28;20457;-69
2021/12/17 15:03:03;;;;;;;15.98;8.85;;;0.70;99.90;;;;;;5036506;28;20056;-69
2021/12/17 15:05:31;;;;;;;15.00;8.75;;;0.60;99.90;;;;;;5046669;28;20028;-69
2021/12/17 15:08:01;;;;;;;15.98;8.57;;;0.60;99.90;;;;;;5032355;28;20155;-69
2021/12/17 15:10:28;;;;;;;16.42;7.68;;;0.60;99.90;;;;;;5034799;28;20029;-69
2021/12/17 15:12:57;;;;;;;15.23;7.55;;;0.60;99.90;;;;;;5032001;28;20025;-69
2021/12/17 15:15:28;;;;;;;38.35;18.98;;;0.60;99.90;;;;;;5035067;28;20047;-69
2021/12/17 15:17:55;;;;;;;35.53;19.20;;;0.60;99.90;;;;;;5034954;28;20171;-69
2021/12/17 15:20:25;;;;;;;23.02;11.68;;;0.60;99.90;;;;;;5035786;28;20041;-69
2021/12/17 15:22:52;;;;;;;20.63;10.75;;;0.70;99.90;;;;;;5031685;28;20044;-69
2021/12/17 15:25:19;;;;;;;18.65;9.65;;;0.60;99.90;;;;;;5035932;28;20084;-69
2021/12/17 15:27:45;;;;;;;15.80;8.60;;;0.60;99.90;;;;;;5034363;28;20049;-69
2021/12/17 15:30:18;;;;;;;18.20;8.75;;;0.60;99.90;;;;;;5036447;28;20052;-69
2021/12/17 15:32:44;;;;;;;16.13;8.63;;;0.60;99.90;;;;;;5032156;28;20025;-69
2021/12/17 15:35:12;;;;;;;17.25;8.95;;;0.60;99.90;;;;;;5036444;28;20025;-69
2021/12/17 15:37:40;;;;;;;18.05;9.25;;;0.60;99.90;;;;;;5036032;28;20028;-69
2021/12/17 15:40:06;;;;;;;18.80;9.88;;;0.60;99.90;;;;;;5033181;28;20504;-69
2021/12/17 15:42:33;;;;;;;20.15;10.00;;;0.60;99.90;;;;;;5035691;28;20025;-70
2021/12/17 15:44:58;;;;;;;21.60;11.07;;;0.60;99.90;;;;;;5026421;28;20026;-69
2021/12/17 15:47:25;;;;;;;18.67;8.90;;;0.70;99.90;;;;;;5015613;28;20060;-69
2021/12/17 15:49:51;;;;;;;17.98;8.40;;;0.70;99.90;;;;;;5030113;28;20021;-69
2021/12/17 15:52:17;;;;;;;17.95;8.68;;;0.70;99.90;;;;;;5032790;28;20388;-70
2021/12/17 15:54:43;;;;;;;20.08;9.93;;;0.70;99.90;;;;;;5022522;28;20038;-69
2021/12/17 15:57:10;;;;;;;16.83;8.88;;;0.70;99.90;;;;;;5031899;28;20034;-69
2021/12/17 15:59:36;;;;;;;20.08;10.50;;;0.70;99.90;;;;;;5033000;28;20040;-70
2021/12/17 16:02:04;;;;;;;22.65;11.38;;;0.70;99.90;;;;;;5029567;28;20078;-69
2021/12/17 16:04:35;;;;;;;20.20;10.68;;;0.70;99.90;;;;;;5034333;28;20100;-69
2021/12/17 16:07:02;;;;;;;21.15;10.75;;;0.70;99.90;;;;;;5034077;28;20393;-69